Time;durP1;ratioP1;P1;durP2;ratioP2;P2;SDS_P1;SDS_P2;PMS_P1;PMS_P2;Temp;Humidity;BMP_temperature;BMP_pressure;BME280_temperature;BME280_humidity;BME280_pressure;Samples;Min_cycle;Max_cycle;Signal;HPM_P1;HPM_P2
2021/06/26 00:01:14;;;;;;;33.85;28.08;;;16.10;99.90;;;;;;4908087;29;20071;-74
2021/06/26 00:03:40;;;;;;;37.95;28.45;;;16.10;99.90;;;;;;4909701;29;20053;-74
2021/06/26 00:06:06;;;;;;;31.90;27.23;;;16.10;99.90;;;;;;4908457;29;20045;-74
2021/06/26 00:08:32;;;;;;;32.13;26.15;;;16.00;99.90;;;;;;4908689;29;20086;-75
2021/06/26 00:10:58;;;;;;;37.85;29.15;;;16.00;99.90;;;;;;4910119;29;20045;-75
2021/06/26 00:13:25;;;;;;;33.28;27.77;;;16.00;99.90;;;;;;4910359;29;20108;-74
2021/06/26 00:15:52;;;;;;;33.90;27.33;;;15.90;99.90;;;;;;4909879;29;20112;-74
2021/06/26 00:18:18;;;;;;;34.08;27.98;;;15.90;99.90;;;;;;4897052;29;20076;-74
2021/06/26 00:20:45;;;;;;;32.15;26.80;;;15.90;99.90;;;;;;4909401;29;20059;-74
2021/06/26 00:23:11;;;;;;;31.63;26.80;;;15.90;99.90;;;;;;4909266;29;20049;-74
2021/06/26 00:25:38;;;;;;;35.15;26.92;;;15.90;99.90;;;;;;4909591;29;20055;-75
2021/06/26 00:28:04;;;;;;;32.50;26.13;;;15.90;99.90;;;;;;4908550;29;20049;-75
2021/06/26 00:30:29;;;;;;;32.10;26.10;;;15.90;99.90;;;;;;4909915;29;20420;-74
2021/06/26 00:32:55;;;;;;;33.50;27.08;;;15.80;99.90;;;;;;4909406;29;20049;-75
2021/06/26 00:35:21;;;;;;;30.55;25.27;;;15.80;99.90;;;;;;4909480;29;20583;-75
2021/06/26 00:37:47;;;;;;;34.60;26.20;;;15.80;99.90;;;;;;4909471;29;20044;-74
2021/06/26 00:40:14;;;;;;;30.13;24.83;;;15.80;99.90;;;;;;4909971;29;20051;-75
2021/06/26 00:42:42;;;;;;;28.95;24.45;;;15.90;99.90;;;;;;4909881;29;20092;-74
2021/06/26 00:45:10;;;;;;;27.98;23.92;;;15.90;99.90;;;;;;4910008;29;20041;-73
2021/06/26 00:47:37;;;;;;;27.55;23.83;;;16.00;99.90;;;;;;4909373;29;20092;-75
2021/06/26 00:50:11;;;;;;;28.67;24.02;;;16.00;99.90;;;;;;4908648;29;20045;-75
2021/06/26 00:52:37;;;;;;;27.38;23.45;;;16.00;99.90;;;;;;4909279;29;20045;-76
2021/06/26 00:55:05;;;;;;;33.15;25.25;;;16.00;99.90;;;;;;4909905;29;20472;-74
2021/06/26 00:57:33;;;;;;;30.17;25.75;;;15.90;99.90;;;;;;4910053;29;20044;-74
2021/06/26 01:00:01;;;;;;;32.45;26.15;;;16.00;99.90;;;;;;4909529;29;20044;-75
2021/06/26 01:02:26;;;;;;;32.80;27.08;;;16.00;99.90;;;;;;4909600;29;20100;-75
2021/06/26 01:04:52;;;;;;;32.72;26.65;;;16.00;99.90;;;;;;4909213;29;20063;-75
2021/06/26 01:07:18;;;;;;;31.95;26.08;;;16.00;99.90;;;;;;4909100;29;20053;-75
2021/06/26 01:09:44;;;;;;;35.05;26.85;;;16.00;99.90;;;;;;4909347;29;20069;-75
2021/06/26 01:12:10;;;;;;;33.47;27.77;;;16.00;99.90;;;;;;4912376;29;20108;-74
2021/06/26 01:14:35;;;;;;;31.73;26.02;;;16.00;99.90;;;;;;4912547;29;20048;-75
2021/06/26 01:17:07;;;;;;;32.83;26.90;;;16.00;99.90;;;;;;4912632;29;20049;-75
2021/06/26 01:19:35;;;;;;;30.40;25.67;;;16.00;99.90;;;;;;4912744;29;20048;-74
2021/06/26 01:22:04;;;;;;;33.22;26.77;;;16.00;99.90;;;;;;4912638;29;20048;-74
2021/06/26 01:24:30;;;;;;;31.25;24.98;;;16.00;99.90;;;;;;4913037;29;20044;-74
2021/06/26 01:26:57;;;;;;;34.83;27.48;;;16.00;99.90;;;;;;4912291;29;20062;-75
2021/06/26 01:29:24;;;;;;;33.97;25.35;;;16.10;99.90;;;;;;4912533;29;20135;-74
2021/06/26 01:31:50;;;;;;;34.75;26.67;;;16.10;99.90;;;;;;4912133;29;20073;-75
2021/06/26 01:34:16;;;;;;;29.52;24.55;;;16.10;99.90;;;;;;4912244;29;20045;-74
2021/06/26 01:36:42;;;;;;;29.98;24.92;;;16.00;99.90;;;;;;4912024;29;20072;-74
2021/06/26 01:39:08;;;;;;;30.40;25.52;;;16.00;99.90;;;;;;4912397;29;20484;-75
2021/06/26 01:41:34;;;;;;;32.42;25.65;;;16.00;99.90;;;;;;4911764;29;20052;-74
2021/06/26 01:44:01;;;;;;;32.65;27.58;;;16.00;99.90;;;;;;4912013;29;20056;-74
2021/06/26 01:46:26;;;;;;;30.52;24.75;;;16.00;99.90;;;;;;4912088;29;20040;-74
2021/06/26 01:48:53;;;;;;;32.78;26.33;;;16.00;99.90;;;;;;4911614;29;20049;-74
2021/06/26 01:51:19;;;;;;;32.90;26.98;;;16.10;99.90;;;;;;4911751;29;20057;-74
2021/06/26 01:53:44;;;;;;;31.77;26.83;;;16.10;99.90;;;;;;4911850;29;20053;-74
2021/06/26 01:56:12;;;;;;;31.35;26.05;;;16.10;99.90;;;;;;4911955;29;20041;-75
2021/06/26 01:58:38;;;;;;;38.03;28.45;;;16.10;99.90;;;;;;4911883;29;20054;-74
2021/06/26 02:01:04;;;;;;;32.63;26.10;;;16.10;99.90;;;;;;4912135;29;20053;-74
2021/06/26 02:03:30;;;;;;;32.63;26.50;;;16.10;99.90;;;;;;4912121;29;20054;-73
2021/06/26 02:05:56;;;;;;;32.78;26.17;;;16.10;99.90;;;;;;4911816;29;20168;-75
2021/06/26 02:08:22;;;;;;;32.05;25.52;;;16.10;99.90;;;;;;4911671;29;20053;-75
2021/06/26 02:10:53;;;;;;;34.67;27.00;;;16.10;99.90;;;;;;4911459;29;20132;-75
2021/06/26 02:13:19;;;;;;;34.58;25.95;;;16.10;99.90;;;;;;4911423;29;20051;-74
2021/06/26 02:15:46;;;;;;;28.45;23.80;;;16.10;99.90;;;;;;4910667;29;20121;-74
2021/06/26 02:18:12;;;;;;;33.30;25.85;;;16.10;99.90;;;;;;4908842;29;20067;-74
2021/06/26 02:20:38;;;;;;;33.17;27.92;;;16.10;99.90;;;;;;4911853;29;20049;-74
2021/06/26 02:23:03;;;;;;;34.55;27.20;;;16.20;99.90;;;;;;4910615;29;20036;-74
2021/06/26 02:25:29;;;;;;;36.25;27.55;;;16.20;99.90;;;;;;4911878;29;20521;-74
2021/06/26 02:27:55;;;;;;;34.90;26.60;;;16.20;99.90;;;;;;4910984;29;20108;-75
2021/06/26 02:30:21;;;;;;;31.27;25.73;;;16.20;99.90;;;;;;4910413;29;20048;-75
2021/06/26 02:32:47;;;;;;;30.17;24.83;;;16.20;99.90;;;;;;4911121;29;20087;-75
2021/06/26 02:35:13;;;;;;;30.30;24.15;;;16.20;99.90;;;;;;4905681;29;20052;-74
2021/06/26 02:37:39;;;;;;;35.47;28.80;;;16.20;99.90;;;;;;4905020;29;20063;-74
2021/06/26 02:40:05;;;;;;;36.78;28.63;;;16.10;99.90;;;;;;4910935;29;20048;-74
2021/06/26 02:42:31;;;;;;;35.90;28.10;;;16.10;99.90;;;;;;4911360;29;20044;-73
2021/06/26 02:44:57;;;;;;;36.58;28.25;;;16.10;99.90;;;;;;4910835;29;20063;-75
2021/06/26 02:47:23;;;;;;;38.38;28.83;;;16.10;99.90;;;;;;4910894;29;20065;-75
2021/06/26 02:49:49;;;;;;;35.00;28.10;;;16.10;99.90;;;;;;4910482;29;20072;-75
2021/06/26 02:52:16;;;;;;;34.97;27.38;;;16.00;99.90;;;;;;4910816;29;20052;-74
2021/06/26 02:54:43;;;;;;;35.33;28.30;;;16.00;99.90;;;;;;4910960;29;20057;-74
2021/06/26 02:57:09;;;;;;;36.58;27.75;;;16.00;99.90;;;;;;4911024;29;20052;-74
2021/06/26 02:59:36;;;;;;;36.22;28.75;;;16.00;99.90;;;;;;4910779;29;20040;-74
2021/06/26 03:02:02;;;;;;;35.33;29.20;;;16.00;99.90;;;;;;4910880;29;20130;-75
2021/06/26 03:04:28;;;;;;;34.83;28.42;;;16.00;99.90;;;;;;4910619;29;20048;-75
2021/06/26 03:06:54;;;;;;;35.78;27.80;;;16.00;99.90;;;;;;4910706;29;20194;-74
2021/06/26 03:09:20;;;;;;;37.45;28.38;;;16.00;99.90;;;;;;4909349;29;20515;-74
2021/06/26 03:11:45;;;;;;;32.03;27.55;;;16.00;99.90;;;;;;4911144;29;20051;-74
2021/06/26 03:14:11;;;;;;;35.67;26.85;;;16.00;99.90;;;;;;4910595;29;20124;-74
2021/06/26 03:16:37;;;;;;;34.33;27.02;;;16.00;99.90;;;;;;4910634;29;20525;-75
2021/06/26 03:19:04;;;;;;;30.60;26.20;;;16.00;99.90;;;;;;4910252;29;20552;-74
2021/06/26 03:21:30;;;;;;;35.58;28.20;;;16.00;99.90;;;;;;4910582;29;20051;-75
2021/06/26 03:23:56;;;;;;;36.10;27.50;;;16.00;99.90;;;;;;4909424;29;20107;-75
2021/06/26 03:26:22;;;;;;;32.42;25.90;;;16.00;99.90;;;;;;4910215;29;20052;-74
2021/06/26 03:28:50;;;;;;;31.95;25.27;;;16.00;99.90;;;;;;4910077;29;20051;-75
2021/06/26 03:31:16;;;;;;;29.95;23.42;;;16.00;99.90;;;;;;4910360;29;20048;-74
2021/06/26 03:33:42;;;;;;;27.73;23.83;;;16.00;99.90;;;;;;4910302;29;20444;-74
2021/06/26 03:36:08;;;;;;;29.10;23.92;;;16.00;99.90;;;;;;4910074;29;20045;-74
2021/06/26 03:38:34;;;;;;;28.88;23.55;;;16.00;99.90;;;;;;4910044;29;20052;-75
2021/06/26 03:41:00;;;;;;;25.75;21.85;;;15.90;99.90;;;;;;4910136;29;20055;-75
2021/06/26 03:43:25;;;;;;;28.58;23.10;;;15.90;99.90;;;;;;4910090;29;20048;-74
2021/06/26 03:45:52;;;;;;;28.70;22.95;;;15.80;99.90;;;;;;4909127;29;20777;-74
2021/06/26 03:48:18;;;;;;;30.55;25.95;;;15.80;99.90;;;;;;4909745;29;20076;-75
2021/06/26 03:50:44;;;;;;;30.88;25.92;;;15.80;99.90;;;;;;4908770;29;20052;-75
2021/06/26 03:53:10;;;;;;;33.33;26.88;;;15.80;99.90;;;;;;4909424;29;20044;-75
2021/06/26 03:55:36;;;;;;;36.85;29.10;;;15.80;99.90;;;;;;4906651;29;20051;-74
2021/06/26 03:58:02;;;;;;;35.47;28.02;;;15.80;99.90;;;;;;4907102;29;20119;-74
2021/06/26 04:00:28;;;;;;;36.97;27.63;;;15.80;99.90;;;;;;4907706;29;20493;-75
2021/06/26 04:02:54;;;;;;;32.97;26.95;;;15.90;99.90;;;;;;4902470;29;20052;-74
2021/06/26 04:05:20;;;;;;;33.80;27.75;;;15.90;99.90;;;;;;4906796;29;20079;-74
2021/06/26 04:07:46;;;;;;;37.08;30.30;;;15.90;99.90;;;;;;4907769;29;20107;-74
2021/06/26 04:10:12;;;;;;;37.25;28.60;;;16.00;99.90;;;;;;4908158;29;20063;-75
2021/06/26 04:12:38;;;;;;;37.83;30.67;;;16.00;99.90;;;;;;4902309;29;20123;-74
2021/06/26 04:15:04;;;;;;;37.30;29.17;;;16.10;99.90;;;;;;4909437;29;20071;-74
2021/06/26 04:17:30;;;;;;;45.00;31.50;;;16.00;99.90;;;;;;4909290;29;20056;-74
2021/06/26 04:19:57;;;;;;;40.70;31.60;;;16.00;99.90;;;;;;4909217;29;20068;-75
2021/06/26 04:22:22;;;;;;;37.97;30.13;;;16.00;99.90;;;;;;4907958;29;20142;-74
2021/06/26 04:24:48;;;;;;;39.60;32.35;;;16.00;99.90;;;;;;4900811;29;20068;-74
2021/06/26 04:27:14;;;;;;;40.15;31.58;;;16.10;99.90;;;;;;4909067;29;20047;-75
2021/06/26 04:29:40;;;;;;;45.95;32.88;;;16.10;99.90;;;;;;4909493;29;20051;-75
2021/06/26 04:32:08;;;;;;;43.28;32.22;;;16.20;99.90;;;;;;4909212;29;20049;-74
2021/06/26 04:34:34;;;;;;;41.42;31.83;;;16.20;99.90;;;;;;4907003;29;20073;-74
2021/06/26 04:37:00;;;;;;;44.80;33.47;;;16.20;99.90;;;;;;4905578;29;20048;-74
2021/06/26 04:39:26;;;;;;;44.42;32.28;;;16.30;99.90;;;;;;4906581;29;20077;-76
2021/06/26 04:41:51;;;;;;;43.72;33.85;;;16.30;99.90;;;;;;4906068;29;20056;-75
2021/06/26 04:44:17;;;;;;;43.85;34.67;;;16.40;99.90;;;;;;4906138;29;20040;-75
2021/06/26 04:46:43;;;;;;;42.13;33.75;;;16.50;99.90;;;;;;4910921;29;20055;-75
2021/06/26 04:49:10;;;;;;;44.70;33.92;;;16.50;99.90;;;;;;4911409;29;20535;-74
2021/06/26 04:51:37;;;;;;;47.92;35.58;;;16.50;99.90;;;;;;4911220;29;20072;-76
2021/06/26 04:54:04;;;;;;;45.35;33.78;;;16.50;99.90;;;;;;4911665;29;20052;-75
2021/06/26 04:56:29;;;;;;;42.28;33.78;;;16.60;99.90;;;;;;4911596;29;20045;-75
2021/06/26 04:58:55;;;;;;;37.90;30.77;;;16.60;99.90;;;;;;4913001;29;20049;-75
2021/06/26 05:01:21;;;;;;;44.55;34.53;;;16.70;99.90;;;;;;4912316;29;20045;-75
2021/06/26 05:03:47;;;;;;;40.88;31.83;;;16.80;99.90;;;;;;4911307;29;20117;-75
2021/06/26 05:06:13;;;;;;;43.35;33.17;;;16.90;99.90;;;;;;4912128;29;20045;-76
2021/06/26 05:08:39;;;;;;;42.63;33.22;;;17.00;99.90;;;;;;4911253;29;20057;-77
2021/06/26 05:11:06;;;;;;;39.67;31.50;;;17.00;99.90;;;;;;4911846;29;20044;-76
2021/06/26 05:13:32;;;;;;;45.97;34.33;;;17.10;99.90;;;;;;4912770;29;20064;-75
2021/06/26 05:15:59;;;;;;;42.95;32.80;;;17.20;99.90;;;;;;4910525;29;20040;-75
2021/06/26 05:18:27;;;;;;;44.85;34.58;;;17.20;99.90;;;;;;4905697;29;20104;-76
2021/06/26 05:20:55;;;;;;;38.22;31.38;;;17.30;99.90;;;;;;4910033;29;20044;-75
2021/06/26 05:23:21;;;;;;;41.75;32.53;;;17.30;99.90;;;;;;4904405;29;20100;-76
2021/06/26 05:25:48;;;;;;;39.78;31.08;;;17.30;99.90;;;;;;4909204;29;20044;-75
2021/06/26 05:28:14;;;;;;;43.05;32.83;;;17.40;99.90;;;;;;4897455;29;20053;-74
2021/06/26 05:30:41;;;;;;;45.63;35.10;;;17.40;99.90;;;;;;4909651;29;20521;-76
2021/06/26 05:33:07;;;;;;;39.10;31.42;;;17.40;99.90;;;;;;4908248;29;20044;-75
2021/06/26 05:35:33;;;;;;;40.45;32.47;;;17.50;99.90;;;;;;4907939;29;20131;-75
2021/06/26 05:38:00;;;;;;;40.08;32.35;;;17.50;99.90;;;;;;4898050;29;20529;-75
2021/06/26 05:40:25;;;;;;;40.45;33.35;;;17.60;99.90;;;;;;4903851;29;20041;-75
2021/06/26 05:42:51;;;;;;;43.35;33.38;;;17.60;99.90;;;;;;4912657;29;20620;-75
2021/06/26 05:45:17;;;;;;;43.05;33.20;;;17.70;99.90;;;;;;4912380;29;20120;-75
2021/06/26 05:47:43;;;;;;;45.47;36.00;;;17.70;99.90;;;;;;4912591;29;20100;-75
2021/06/26 05:50:10;;;;;;;41.28;32.13;;;17.80;99.90;;;;;;4911429;29;20048;-75
2021/06/26 05:52:50;;;;;;;47.35;35.47;;;17.80;99.90;;;;;;4912222;29;20049;-75
2021/06/26 05:55:17;;;;;;;39.38;32.33;;;17.80;99.90;;;;;;4912059;29;20055;-74
2021/06/26 05:57:43;;;;;;;43.75;33.40;;;17.80;99.90;;;;;;4901476;29;20120;-75
2021/06/26 06:00:10;;;;;;;38.45;32.20;;;17.90;99.90;;;;;;4911757;29;20063;-75
2021/06/26 06:02:36;;;;;;;41.03;34.35;;;17.90;99.90;;;;;;4907917;29;20053;-75
2021/06/26 06:05:03;;;;;;;43.15;34.10;;;17.90;99.90;;;;;;4902521;29;20044;-76
2021/06/26 06:07:29;;;;;;;43.83;34.63;;;17.90;99.90;;;;;;4909813;29;20068;-76
2021/06/26 06:09:55;;;;;;;41.63;33.80;;;17.90;99.90;;;;;;4908267;29;20044;-74
2021/06/26 06:12:21;;;;;;;43.60;34.53;;;18.00;99.90;;;;;;4910368;29;20125;-76
2021/06/26 06:14:46;;;;;;;42.80;34.42;;;18.00;99.90;;;;;;4903599;29;20055;-76
2021/06/26 06:17:12;;;;;;;43.20;33.33;;;18.10;99.90;;;;;;4901116;29;20045;-75
2021/06/26 06:19:38;;;;;;;40.13;32.38;;;18.10;99.90;;;;;;4909479;29;20067;-76
2021/06/26 06:22:08;;;;;;;42.80;33.78;;;18.10;99.90;;;;;;4896479;29;20119;-75
2021/06/26 06:24:35;;;;;;;43.47;35.00;;;18.20;99.90;;;;;;4910596;29;20051;-75
2021/06/26 06:27:01;;;;;;;40.28;33.63;;;18.20;99.90;;;;;;4903263;29;20490;-70
2021/06/26 06:29:26;;;;;;;40.30;33.05;;;18.20;99.90;;;;;;4911054;29;20068;-70
2021/06/26 06:31:52;;;;;;;44.83;35.13;;;18.30;99.90;;;;;;4910679;29;20052;-74
2021/06/26 06:34:18;;;;;;;40.83;32.75;;;18.30;99.90;;;;;;4910677;29;20050;-72
2021/06/26 06:36:44;;;;;;;47.17;35.80;;;18.30;99.90;;;;;;4910011;29;20573;-70
2021/06/26 06:39:09;;;;;;;40.63;32.78;;;18.30;99.90;;;;;;4910565;29;20044;-70
2021/06/26 06:41:35;;;;;;;41.83;33.40;;;18.30;99.90;;;;;;4910281;29;20052;-70
2021/06/26 06:44:01;;;;;;;44.25;34.72;;;18.30;99.90;;;;;;4911230;29;20076;-71
2021/06/26 06:46:27;;;;;;;40.72;33.17;;;18.40;99.90;;;;;;4909215;29;20059;-71
2021/06/26 06:48:53;;;;;;;43.85;35.92;;;18.40;99.90;;;;;;4909147;29;20056;-71
2021/06/26 06:51:18;;;;;;;43.05;34.15;;;18.40;99.90;;;;;;4910174;29;20053;-70
2021/06/26 06:53:44;;;;;;;40.42;33.83;;;18.40;99.90;;;;;;4909504;29;20052;-71
2021/06/26 06:56:10;;;;;;;39.75;34.13;;;18.40;99.90;;;;;;4895473;29;20051;-70
2021/06/26 06:58:36;;;;;;;42.75;32.28;;;18.40;99.90;;;;;;4909987;29;20049;-70
2021/06/26 07:01:02;;;;;;;41.58;33.05;;;18.50;99.90;;;;;;4910491;29;20044;-70
2021/06/26 07:03:28;;;;;;;42.30;33.67;;;18.50;99.90;;;;;;4863545;29;20041;-70
2021/06/26 07:05:54;;;;;;;42.90;34.85;;;18.40;99.90;;;;;;4909599;29;20187;-69
2021/06/26 07:08:20;;;;;;;44.97;35.85;;;18.40;99.90;;;;;;4909448;29;20049;-71
2021/06/26 07:10:45;;;;;;;43.58;34.50;;;18.50;99.90;;;;;;4910259;29;20041;-72
2021/06/26 07:13:11;;;;;;;41.17;32.53;;;18.50;99.90;;;;;;4910418;29;20049;-71
2021/06/26 07:15:37;;;;;;;43.33;34.13;;;18.50;99.90;;;;;;4910065;29;20056;-72
2021/06/26 07:18:03;;;;;;;37.65;30.52;;;18.50;99.90;;;;;;4909523;29;20532;-72
2021/06/26 07:20:29;;;;;;;45.92;35.22;;;18.60;99.90;;;;;;4910530;29;20053;-72
2021/06/26 07:22:56;;;;;;;38.28;32.47;;;18.60;99.90;;;;;;4905076;29;20047;-71
2021/06/26 07:25:23;;;;;;;41.55;32.38;;;18.60;99.90;;;;;;4910623;29;20104;-72
2021/06/26 07:27:48;;;;;;;40.47;31.70;;;18.70;99.90;;;;;;4910220;29;20060;-72
2021/06/26 07:30:15;;;;;;;43.38;33.10;;;18.70;99.90;;;;;;4910734;29;20052;-72
2021/06/26 07:32:43;;;;;;;34.92;29.23;;;18.80;99.90;;;;;;4905476;29;20044;-72
2021/06/26 07:35:09;;;;;;;40.50;32.13;;;18.80;99.90;;;;;;4910652;29;20052;-72
2021/06/26 07:37:35;;;;;;;37.38;29.83;;;18.90;99.90;;;;;;4909606;29;20047;-72
2021/06/26 07:40:01;;;;;;;37.15;30.80;;;18.90;99.90;;;;;;4909358;29;20100;-71
2021/06/26 07:42:26;;;;;;;39.67;32.88;;;18.90;99.90;;;;;;4910559;29;20068;-72
2021/06/26 07:44:52;;;;;;;36.47;31.42;;;18.90;99.90;;;;;;4910446;29;20055;-72
2021/06/26 07:47:18;;;;;;;39.83;33.03;;;19.00;99.90;;;;;;4910035;29;20053;-71
2021/06/26 07:49:44;;;;;;;35.05;30.92;;;19.00;99.90;;;;;;4908888;29;20050;-71
2021/06/26 07:52:10;;;;;;;38.08;30.35;;;19.10;99.90;;;;;;4909335;29;20054;-71
2021/06/26 07:54:35;;;;;;;40.95;31.80;;;19.10;99.90;;;;;;4909381;29;20051;-70
2021/06/26 07:57:01;;;;;;;41.83;32.30;;;19.20;99.90;;;;;;4909239;29;20044;-71
2021/06/26 07:59:27;;;;;;;39.88;30.40;;;19.30;99.90;;;;;;4910172;29;20129;-71
2021/06/26 08:01:54;;;;;;;39.13;32.08;;;19.30;99.90;;;;;;4909499;29;20041;-71
2021/06/26 08:04:20;;;;;;;39.80;31.70;;;19.40;99.90;;;;;;4908929;29;20079;-71
2021/06/26 08:06:45;;;;;;;35.35;29.58;;;19.60;99.90;;;;;;4909404;29;20047;-71
2021/06/26 08:09:11;;;;;;;35.10;30.15;;;19.50;99.90;;;;;;4909915;29;20053;-71
2021/06/26 08:11:37;;;;;;;43.22;32.15;;;19.50;99.90;;;;;;4908644;29;20508;-71
2021/06/26 08:14:03;;;;;;;34.42;29.25;;;19.60;99.90;;;;;;4909756;29;20060;-71
2021/06/26 08:16:29;;;;;;;36.60;29.98;;;19.60;99.90;;;;;;4908934;29;20072;-71
2021/06/26 08:18:55;;;;;;;36.22;31.67;;;19.70;99.90;;;;;;4908739;29;20053;-70
2021/06/26 08:21:22;;;;;;;36.33;30.83;;;19.70;99.90;;;;;;4910604;29;20074;-71
2021/06/26 08:23:49;;;;;;;36.10;29.60;;;19.70;99.90;;;;;;4912601;29;20059;-72
2021/06/26 08:26:16;;;;;;;35.22;28.73;;;19.90;99.90;;;;;;4913009;29;20048;-72
2021/06/26 08:28:41;;;;;;;34.33;27.73;;;19.90;99.90;;;;;;4913222;29;20509;-69
2021/06/26 08:31:07;;;;;;;32.30;27.58;;;19.90;99.90;;;;;;4911824;29;20053;-75
2021/06/26 08:33:33;;;;;;;26.30;22.10;;;20.10;99.90;;;;;;4912808;29;20122;-74
2021/06/26 08:35:59;;;;;;;26.05;22.20;;;20.10;99.90;;;;;;4913113;29;20047;-74
2021/06/26 08:38:25;;;;;;;30.70;25.25;;;20.10;99.90;;;;;;4907931;29;20052;-74
2021/06/26 08:40:54;;;;;;;36.63;27.88;;;20.10;99.90;;;;;;4912587;29;20051;-74
2021/06/26 08:43:20;;;;;;;32.33;25.85;;;20.20;99.90;;;;;;4912742;29;20048;-73
2021/06/26 08:45:47;;;;;;;24.23;21.27;;;20.20;99.90;;;;;;4912667;29;20130;-73
2021/06/26 08:48:13;;;;;;;28.27;22.80;;;20.40;99.90;;;;;;4910799;29;20064;-73
2021/06/26 08:50:39;;;;;;;30.80;26.75;;;20.60;99.90;;;;;;4907280;29;20044;-73
2021/06/26 08:53:06;;;;;;;30.70;25.17;;;20.50;99.90;;;;;;4913021;29;20048;-73
2021/06/26 08:55:32;;;;;;;33.08;25.80;;;20.60;99.90;;;;;;4913308;29;20230;-74
2021/06/26 08:58:03;;;;;;;33.08;26.20;;;20.60;99.90;;;;;;4912448;29;20060;-75
2021/06/26 09:00:29;;;;;;;27.60;23.50;;;20.70;99.90;;;;;;4912381;29;20053;-75
2021/06/26 09:03:15;;;;;;;27.33;22.58;;;20.70;99.90;;;;;;4912060;29;20041;-75
2021/06/26 09:05:43;;;;;;;27.58;24.02;;;20.80;99.90;;;;;;4912927;29;20052;-74
2021/06/26 09:08:27;;;;;;;26.30;21.50;;;20.90;99.90;;;;;;4911824;29;20054;-75
2021/06/26 09:10:53;;;;;;;26.83;23.90;;;21.00;99.90;;;;;;4911661;29;20058;-69
2021/06/26 09:13:24;;;;;;;31.30;23.63;;;21.00;99.90;;;;;;4897646;29;20052;-70
2021/06/26 09:16:07;;;;;;;28.48;22.80;;;21.10;99.90;;;;;;4890696;29;20067;-70
2021/06/26 09:18:41;;;;;;;26.55;22.27;;;21.10;99.90;;;;;;4876782;29;20060;-73
2021/06/26 09:21:16;;;;;;;22.63;19.52;;;21.00;99.90;;;;;;4916002;29;20096;-73
2021/06/26 09:23:42;;;;;;;19.83;15.77;;;21.20;99.90;;;;;;4895178;29;20059;-75
2021/06/26 09:26:12;;;;;;;19.85;15.52;;;21.20;99.90;;;;;;4906431;29;20056;-77
2021/06/26 09:28:39;;;;;;;12.70;10.73;;;21.30;99.90;;;;;;4911530;29;20393;-78
2021/06/26 09:31:16;;;;;;;13.32;11.93;;;21.40;99.90;;;;;;4906152;29;20110;-77
2021/06/26 09:33:42;;;;;;;12.27;9.73;;;21.30;99.90;;;;;;4898916;29;20056;-76
2021/06/26 09:36:12;;;;;;;13.65;12.13;;;21.40;99.90;;;;;;4906225;29;20521;-78
2021/06/26 09:38:59;;;;;;;9.95;8.95;;;21.40;99.90;;;;;;4896665;29;20048;-76
2021/06/26 09:41:26;;;;;;;11.90;10.32;;;21.30;99.90;;;;;;4900782;29;20036;-75
2021/06/26 09:43:52;;;;;;;11.18;9.93;;;21.40;99.90;;;;;;4919067;29;20120;-76
2021/06/26 09:46:19;;;;;;;12.68;9.48;;;21.60;99.90;;;;;;4903522;29;20100;-75
2021/06/26 09:48:50;;;;;;;9.95;7.10;;;21.70;99.90;;;;;;4907816;29;20052;-76
2021/06/26 09:51:18;;;;;;;9.23;8.02;;;21.80;99.90;;;;;;4904515;29;20041;-77
2021/06/26 09:54:13;;;;;;;10.35;8.90;;;22.00;99.90;;;;;;4911865;29;20187;-79
2021/06/26 09:56:43;;;;;;;9.35;8.45;;;22.00;99.90;;;;;;4873646;29;20141;-78
2021/06/26 09:59:10;;;;;;;8.77;7.45;;;22.10;99.90;;;;;;4914922;29;20084;-80
2021/06/26 10:01:40;;;;;;;10.10;8.20;;;22.20;99.90;;;;;;4894626;29;20108;-82
2021/06/26 10:04:07;;;;;;;7.90;6.78;;;22.30;99.90;;;;;;4918496;29;20045;-82
2021/06/26 10:06:34;;;;;;;13.68;12.02;;;22.30;99.90;;;;;;4903681;29;20564;-83
2021/06/26 10:09:05;;;;;;;13.10;11.32;;;22.40;99.90;;;;;;4909703;29;20048;-82
2021/06/26 10:11:32;;;;;;;12.60;10.95;;;22.20;99.90;;;;;;4903976;29;20037;-82
2021/06/26 10:14:07;;;;;;;13.40;12.00;;;22.20;99.90;;;;;;4883799;29;20073;-69
2021/06/26 10:16:35;;;;;;;11.77;10.52;;;22.10;99.90;;;;;;4904529;29;20116;-71
2021/06/26 10:19:03;;;;;;;11.82;10.63;;;22.10;99.90;;;;;;4878796;29;20045;-70
2021/06/26 10:21:30;;;;;;;12.05;10.63;;;22.00;99.90;;;;;;4905619;29;20418;-70
2021/06/26 10:24:01;;;;;;;11.10;9.90;;;22.00;99.90;;;;;;4910761;29;20060;-70
2021/06/26 10:26:33;;;;;;;11.55;9.77;;;22.10;99.90;;;;;;4904957;29;20052;-70
2021/06/26 10:29:00;;;;;;;12.23;10.52;;;22.10;99.90;;;;;;4894476;29;20053;-70
2021/06/26 10:31:32;;;;;;;11.73;9.65;;;22.00;99.90;;;;;;4905009;29;20472;-70
2021/06/26 10:34:17;;;;;;;11.63;10.43;;;22.10;99.90;;;;;;4914561;29;20056;-70
2021/06/26 10:36:51;;;;;;;11.40;10.25;;;22.10;99.90;;;;;;4910916;29;20048;-70
2021/06/26 10:39:25;;;;;;;12.45;10.70;;;22.30;99.90;;;;;;4908594;29;20045;-70
2021/06/26 10:42:07;;;;;;;11.30;10.20;;;22.30;99.90;;;;;;4909092;29;20048;-69
2021/06/26 10:44:46;;;;;;;11.57;9.98;;;22.30;99.90;;;;;;4908743;29;20079;-66
2021/06/26 10:47:14;;;;;;;11.52;10.35;;;22.30;99.90;;;;;;4909115;29;20056;-66
2021/06/26 10:49:40;;;;;;;16.45;10.38;;;22.30;99.90;;;;;;4910440;29;20049;-66
2021/06/26 10:52:07;;;;;;;10.80;9.68;;;22.40;99.90;;;;;;4909422;29;20049;-66
2021/06/26 10:54:34;;;;;;;10.10;9.10;;;22.40;99.90;;;;;;4909227;29;20052;-65
2021/06/26 10:57:05;;;;;;;12.93;9.68;;;22.50;99.90;;;;;;4910059;29;20052;-65
2021/06/26 10:59:32;;;;;;;11.27;10.07;;;22.60;99.90;;;;;;4910885;29;20072;-65
2021/06/26 11:02:00;;;;;;;10.40;9.40;;;22.70;99.90;;;;;;4908220;29;20063;-65
2021/06/26 11:04:27;;;;;;;10.73;9.63;;;22.70;99.90;;;;;;4909208;29;20057;-65
2021/06/26 11:07:07;;;;;;;11.05;9.65;;;22.80;99.90;;;;;;4908718;29;20057;-65
2021/06/26 11:09:38;;;;;;;10.90;9.45;;;22.90;99.90;;;;;;4908845;29;20057;-63
2021/06/26 11:12:11;;;;;;;10.82;9.73;;;23.10;99.90;;;;;;4908203;29;20060;-65
2021/06/26 11:14:37;;;;;;;11.60;10.40;;;23.10;99.90;;;;;;4890209;29;20057;-65
2021/06/26 11:17:03;;;;;;;11.55;10.43;;;23.30;99.90;;;;;;4910270;29;20139;-65
2021/06/26 11:19:34;;;;;;;10.63;9.50;;;23.40;99.90;;;;;;4909318;29;20147;-67
2021/06/26 11:22:01;;;;;;;12.63;9.98;;;23.50;99.90;;;;;;4910011;29;20041;-68
2021/06/26 11:24:38;;;;;;;9.90;8.90;;;23.60;99.90;;;;;;4903462;29;20048;-68
2021/06/26 11:27:07;;;;;;;10.98;9.15;;;23.60;99.90;;;;;;4908632;29;20048;-68
2021/06/26 11:29:39;;;;;;;13.15;10.02;;;23.70;99.90;;;;;;4908508;29;20071;-68
2021/06/26 11:32:22;;;;;;;9.93;8.43;;;23.80;99.90;;;;;;4908659;29;20418;-67
2021/06/26 11:35:04;;;;;;;10.98;9.57;;;24.00;99.90;;;;;;4908409;29;20045;-67
2021/06/26 11:37:50;;;;;;;11.10;9.20;;;24.10;99.90;;;;;;4908433;29;20395;-68
2021/06/26 11:40:27;;;;;;;9.90;8.90;;;24.10;99.90;;;;;;4908468;29;20079;-68
2021/06/26 11:42:56;;;;;;;10.23;9.25;;;24.10;99.90;;;;;;4908350;29;20075;-67
2021/06/26 11:45:29;;;;;;;10.40;9.05;;;24.20;99.90;;;;;;4908547;29;20056;-68
2021/06/26 11:48:04;;;;;;;10.85;9.10;;;24.20;99.90;;;;;;4909546;29;20050;-68
2021/06/26 11:50:30;;;;;;;11.25;8.68;;;24.30;99.90;;;;;;4903128;29;20136;-67
2021/06/26 11:53:11;;;;;;;11.88;9.55;;;24.50;99.90;;;;;;4909440;29;20104;-67
2021/06/26 11:55:50;;;;;;;7.93;7.15;;;24.60;99.90;;;;;;4908213;29;20076;-68
2021/06/26 11:58:19;;;;;;;10.90;9.60;;;24.70;99.90;;;;;;4898215;29;20081;-67
2021/06/26 12:00:48;;;;;;;10.25;9.23;;;24.80;99.90;;;;;;4908175;29;20127;-68
2021/06/26 12:03:18;;;;;;;9.35;8.43;;;25.00;99.90;;;;;;4908263;29;20071;-68
2021/06/26 12:05:45;;;;;;;9.80;8.80;;;25.00;99.90;;;;;;4907866;29;20051;-67
2021/06/26 12:08:11;;;;;;;10.88;8.70;;;24.90;99.90;;;;;;4908249;29;20056;-68
2021/06/26 12:10:37;;;;;;;9.40;8.50;;;24.80;99.90;;;;;;4908138;29;20070;-68
2021/06/26 12:13:03;;;;;;;9.05;8.15;;;24.80;99.90;;;;;;4908029;29;20056;-68
2021/06/26 12:15:29;;;;;;;8.43;7.43;;;24.80;99.90;;;;;;4898939;29;20059;-68
2021/06/26 12:18:03;;;;;;;8.73;7.53;;;24.80;99.90;;;;;;4907413;29;20053;-68
2021/06/26 12:20:34;;;;;;;9.10;6.45;;;25.00;99.90;;;;;;4908050;29;20060;-68
2021/06/26 12:23:06;;;;;;;9.63;7.18;;;25.10;99.90;;;;;;4896978;29;20049;-68
2021/06/26 12:25:37;;;;;;;7.32;6.28;;;25.30;99.90;;;;;;4908104;29;20462;-68
2021/06/26 12:28:06;;;;;;;7.53;6.32;;;25.20;99.90;;;;;;4908130;29;20465;-68
2021/06/26 12:30:32;;;;;;;7.28;6.38;;;25.20;99.90;;;;;;4907601;29;20112;-68